createdAt,value
2022-08-09T00:00:23.389Z,101042.53
2022-08-09T00:02:51.849Z,101037.37
2022-08-09T00:06:15.805Z,101036.63
2022-08-09T00:08:12.864Z,101041.00
2022-08-09T00:10:40.615Z,101031.78
2022-08-09T00:13:17.174Z,101033.56
2022-08-09T00:15:57.942Z,101039.97
2022-08-09T00:18:34.935Z,101044.84
2022-08-09T00:21:08.483Z,101043.19
2022-08-09T00:23:57.861Z,101028.97
2022-08-09T00:26:29.750Z,101033.66
2022-08-09T00:29:00.537Z,101032.22
2022-08-09T00:31:57.651Z,101031.16
2022-08-09T00:34:14.533Z,101038.56
2022-08-09T00:36:47.867Z,101037.16
2022-08-09T00:40:08.877Z,101038.41
2022-08-09T00:44:16.377Z,101033.13
2022-08-09T00:44:48.667Z,101034.28
2022-08-09T00:47:16.126Z,101035.84
2022-08-09T00:49:52.558Z,101029.13
2022-08-09T00:52:30.298Z,101039.28
2022-08-09T00:55:01.655Z,101037.59
2022-08-09T00:57:34.273Z,101034.50
2022-08-09T01:00:21.279Z,101032.53
2022-08-09T01:02:54.933Z,101032.41
2022-08-09T01:05:53.292Z,101035.25
2022-08-09T01:08:31.445Z,101034.47
2022-08-09T01:11:26.427Z,101043.94
2022-08-09T01:14:08.018Z,101036.47
2022-08-09T01:16:47.179Z,101034.50
2022-08-09T01:19:51.852Z,101030.37
2022-08-09T01:22:42.678Z,101028.00
2022-08-09T01:25:25.124Z,101024.22
2022-08-09T01:27:53.969Z,101027.41
2022-08-09T01:30:33.672Z,101025.53
2022-08-09T01:33:04.482Z,101029.63
2022-08-09T01:35:45.876Z,101024.56
2022-08-09T01:38:20.927Z,101028.47
2022-08-09T01:41:04.754Z,101019.50
2022-08-09T01:43:50.082Z,101027.47
2022-08-09T01:46:31.647Z,101022.19
2022-08-09T01:49:18.717Z,101007.78
2022-08-09T01:51:54.757Z,101023.16
2022-08-09T01:54:24.156Z,101013.81
2022-08-09T01:56:52.620Z,101009.97
2022-08-09T01:59:20.786Z,101007.63
2022-08-09T02:01:59.988Z,100995.91
2022-08-09T02:04:28.546Z,101008.38
2022-08-09T02:07:15.300Z,101010.66
2022-08-09T02:09:59.750Z,101009.69
2022-08-09T02:12:29.467Z,101012.69
2022-08-09T02:14:58.573Z,101003.84
2022-08-09T02:18:00.799Z,101006.19
2022-08-09T02:20:25.016Z,101013.31
2022-08-09T02:22:59.237Z,101007.16
2022-08-09T02:25:33.203Z,101002.47
2022-08-09T02:28:17.894Z,101004.97
2022-08-09T02:30:49.055Z,101001.78
2022-08-09T02:33:23.671Z,101007.94
2022-08-09T02:36:15.815Z,101004.84
2022-08-09T02:38:51.982Z,101006.31
2022-08-09T02:41:27.126Z,101004.50
2022-08-09T02:43:56.668Z,101006.81
2022-08-09T02:46:27.838Z,100997.72
2022-08-09T02:48:59.644Z,100998.59
2022-08-09T02:51:28.165Z,100999.19
2022-08-09T02:54:05.239Z,101004.06
2022-08-09T02:56:33.445Z,101004.41
2022-08-09T02:59:03.736Z,101001.59
2022-08-09T03:01:43.157Z,100998.25
2022-08-09T03:04:20.666Z,101002.78
2022-08-09T03:06:53.482Z,100990.22
2022-08-09T03:09:21.391Z,100994.78
2022-08-09T03:12:05.450Z,100995.63
2022-08-09T03:14:36.483Z,100996.81
2022-08-09T03:17:05.626Z,100992.19
2022-08-09T03:19:57.811Z,100993.94
2022-08-09T03:22:41.480Z,100997.69
2022-08-09T03:25:26.475Z,101006.06
2022-08-09T03:27:57.720Z,100996.53
2022-08-09T03:30:29.228Z,100994.97
2022-08-09T03:33:01.456Z,100996.78
2022-08-09T03:36:07.916Z,100993.37
2022-08-09T03:38:28.836Z,100989.31
2022-08-09T03:40:56.279Z,100991.25
2022-08-09T03:43:23.219Z,100996.28
2022-08-09T03:46:04.315Z,101000.00
2022-08-09T03:48:51.299Z,100995.16
2022-08-09T03:51:55.660Z,100997.22
2022-08-09T03:54:12.662Z,100996.13
2022-08-09T03:56:40.948Z,100991.91
2022-08-09T03:59:17.093Z,100996.63
2022-08-09T04:01:50.100Z,100999.37
2022-08-09T04:04:17.658Z,101001.81
2022-08-09T04:06:49.200Z,100999.37
2022-08-09T04:09:47.911Z,101001.81
2022-08-09T04:12:12.056Z,100996.00
2022-08-09T04:15:00.790Z,101001.78
2022-08-09T04:17:27.201Z,100998.56
2022-08-09T04:19:57.231Z,101005.19
2022-08-09T04:22:24.648Z,100999.75
2022-08-09T04:24:54.941Z,100991.59
2022-08-09T04:27:22.172Z,100993.53
2022-08-09T04:29:50.470Z,100999.50
2022-08-09T04:32:31.218Z,101005.19
2022-08-09T04:34:58.585Z,101000.28
2022-08-09T04:37:46.055Z,101012.91
2022-08-09T04:40:28.533Z,101008.75
2022-08-09T04:43:04.704Z,101007.72
2022-08-09T04:45:36.149Z,101011.00
2022-08-09T04:48:19.421Z,100999.03
2022-08-09T04:50:49.880Z,100974.03
2022-08-09T04:53:17.145Z,100967.25
2022-08-09T04:55:57.517Z,100949.50
2022-08-09T04:58:26.722Z,100935.13
2022-08-09T05:00:54.510Z,100921.63
2022-08-09T05:03:40.411Z,100906.12
2022-08-09T05:06:11.329Z,100909.34
2022-08-09T05:08:38.367Z,100922.78
2022-08-09T05:11:06.786Z,100910.06
2022-08-09T05:13:38.643Z,100902.03
2022-08-09T05:16:07.905Z,100894.37
2022-08-09T05:18:50.601Z,100884.84
2022-08-09T05:21:24.228Z,100921.75
2022-08-09T05:23:58.116Z,100932.69
2022-08-09T05:26:45.255Z,100940.38
2022-08-09T05:29:21.913Z,100949.22
2022-08-09T05:31:57.691Z,100961.34
2022-08-09T05:34:31.206Z,100982.44
2022-08-09T05:37:05.223Z,100966.56
2022-08-09T05:39:42.856Z,100964.84
2022-08-09T05:42:17.662Z,100969.84
2022-08-09T05:44:53.425Z,100974.62
2022-08-09T05:47:22.821Z,100966.69
2022-08-09T05:50:30.022Z,100984.97
2022-08-09T05:52:39.534Z,100981.12
2022-08-09T05:55:08.945Z,100972.22
2022-08-09T05:57:50.663Z,100978.84
2022-08-09T06:00:25.977Z,100978.22
2022-08-09T06:02:54.635Z,100963.97
2022-08-09T06:05:31.083Z,100953.84
2022-08-09T06:08:19.355Z,100958.13
2022-08-09T06:10:55.535Z,100964.47
2022-08-09T06:13:23.529Z,100969.94
2022-08-09T06:15:52.269Z,100962.59
2022-08-09T06:18:23.810Z,100960.50
2022-08-09T06:20:54.871Z,100959.69
2022-08-09T06:23:55.643Z,100976.97
2022-08-09T06:26:12.704Z,100981.78
2022-08-09T06:28:43.522Z,100972.34
2022-08-09T06:31:10.853Z,100964.12
2022-08-09T06:33:40.626Z,100967.94
2022-08-09T06:36:09.441Z,100959.75
2022-08-09T06:38:39.110Z,100942.81
2022-08-09T06:41:18.393Z,100951.19
2022-08-09T06:43:47.769Z,100955.56
2022-08-09T06:46:39.089Z,100947.69
2022-08-09T06:49:04.564Z,100943.78
2022-08-09T06:51:33.676Z,100936.94
2022-08-09T06:54:09.155Z,100929.09
2022-08-09T06:56:39.482Z,100932.56
2022-08-09T07:00:52.508Z,100939.59
2022-08-09T07:02:03.925Z,100926.69
2022-08-09T07:04:32.183Z,100932.56
2022-08-09T07:07:00.612Z,100943.03
2022-08-09T07:09:55.597Z,100941.56
2022-08-09T07:12:20.126Z,100948.50
2022-08-09T07:16:35.355Z,100947.97
2022-08-09T07:17:56.455Z,100972.34
2022-08-09T07:20:29.538Z,100946.47
2022-08-09T07:22:56.816Z,100948.13
2022-08-09T07:25:25.584Z,100928.31
2022-08-09T07:27:53.214Z,100942.44
2022-08-09T07:30:24.759Z,100949.00
2022-08-09T07:32:52.729Z,100943.03
2022-08-09T07:35:19.668Z,100937.03
2022-08-09T07:37:49.132Z,100929.38
2022-08-09T07:40:18.546Z,100941.47
2022-08-09T07:42:56.039Z,100943.72
2022-08-09T07:45:37.513Z,100930.16
2022-08-09T07:48:28.342Z,100925.28
2022-08-09T07:51:02.970Z,100932.47
2022-08-09T07:54:05.023Z,100927.59
2022-08-09T07:56:27.479Z,100937.22
2022-08-09T07:58:55.471Z,100927.59
2022-08-09T08:01:32.925Z,100927.12
2022-08-09T08:04:02.766Z,100921.63
2022-08-09T08:06:31.952Z,100919.22
2022-08-09T08:09:04.986Z,100919.97
2022-08-09T08:12:19.775Z,100909.06
2022-08-09T08:14:21.059Z,100908.06
2022-08-09T08:17:00.341Z,100902.06
2022-08-09T08:19:40.586Z,100892.06
2022-08-09T08:22:13.359Z,100902.06
2022-08-09T08:24:44.798Z,100901.47
2022-08-09T08:27:16.884Z,100914.47
2022-08-09T08:29:50.214Z,100892.34
2022-08-09T08:32:41.292Z,100900.16
2022-08-09T08:35:07.686Z,100903.75
2022-08-09T08:37:42.007Z,100900.25
2022-08-09T08:40:23.152Z,100905.38
2022-08-09T08:42:53.687Z,100923.66
2022-08-09T08:45:50.788Z,100907.31
2022-08-09T08:48:19.502Z,100912.28
2022-08-09T08:50:49.211Z,100891.06
2022-08-09T08:53:21.779Z,100877.06
2022-08-09T08:55:49.114Z,100881.44
2022-08-09T08:58:20.065Z,100892.06
2022-08-09T09:00:56.888Z,100883.06
2022-08-09T09:03:33.145Z,100886.12
2022-08-09T09:06:05.811Z,100877.81
2022-08-09T09:08:37.894Z,100871.28
2022-08-09T09:11:08.373Z,100869.97
2022-08-09T09:13:47.301Z,100873.16
2022-08-09T09:16:34.915Z,100880.59
2022-08-09T09:19:37.256Z,100868.31
2022-08-09T09:22:04.282Z,100824.03
2022-08-09T09:24:43.217Z,100871.22
2022-08-09T09:28:03.084Z,100875.91
2022-08-09T09:30:23.733Z,100874.34
2022-08-09T09:33:13.808Z,100861.00
2022-08-09T09:36:21.066Z,100872.88
2022-08-09T09:38:57.162Z,100844.97
2022-08-09T09:41:27.835Z,100870.16
2022-08-09T09:44:11.436Z,100879.03
2022-08-09T09:46:50.388Z,100868.03
2022-08-09T09:49:31.585Z,100856.16
2022-08-09T09:52:16.297Z,100867.59
2022-08-09T09:55:28.743Z,100868.47
2022-08-09T09:58:16.939Z,100855.78
2022-08-09T10:00:53.768Z,100875.06
2022-08-09T10:03:58.247Z,100862.25
2022-08-09T10:06:43.474Z,100847.56
2022-08-09T10:09:22.949Z,100853.84
2022-08-09T10:12:14.774Z,100853.69
2022-08-09T10:14:49.930Z,100847.50
2022-08-09T10:17:39.764Z,100856.28
2022-08-09T10:20:27.730Z,100864.72
2022-08-09T10:23:13.934Z,100850.75
2022-08-09T10:26:04.371Z,100855.97
2022-08-09T10:28:34.236Z,100840.09
2022-08-09T10:34:11.106Z,100860.00
2022-08-09T10:36:36.379Z,100863.41
2022-08-09T10:39:06.036Z,100847.37
2022-08-09T10:41:43.107Z,100850.37
2022-08-09T10:44:10.254Z,100838.91
2022-08-09T10:46:57.160Z,100836.94
2022-08-09T10:49:50.034Z,100831.09
2022-08-09T10:52:51.771Z,100827.28
2022-08-09T10:55:27.642Z,100838.41
2022-08-09T10:58:00.217Z,100820.78
2022-08-09T11:00:56.894Z,100827.47
2022-08-09T11:03:46.999Z,100828.31
2022-08-09T11:06:19.454Z,100838.72
2022-08-09T11:08:51.819Z,100833.34
2022-08-09T11:11:23.232Z,100823.16
2022-08-09T11:14:35.439Z,100821.69
2022-08-09T11:17:24.601Z,100824.84
2022-08-09T11:20:11.134Z,100827.84
2022-08-09T11:22:47.295Z,100801.50
2022-08-09T11:25:47.554Z,100782.81
2022-08-09T11:28:54.273Z,100785.31
2022-08-09T11:31:49.651Z,100790.91
2022-08-09T11:34:38.996Z,100812.41
2022-08-09T11:37:07.820Z,100825.53
2022-08-09T11:40:18.094Z,100814.00
2022-08-09T11:42:49.882Z,100841.44
2022-08-09T11:45:21.554Z,100817.66
2022-08-09T11:47:54.006Z,100795.72
2022-08-09T11:50:54.922Z,100815.75
2022-08-09T11:53:43.986Z,100798.22
2022-08-09T11:56:02.345Z,100794.53
2022-08-09T11:58:33.621Z,100793.59
2022-08-09T12:01:37.224Z,100789.03
2022-08-09T12:04:04.829Z,100770.22
2022-08-09T12:06:35.326Z,100787.69
2022-08-09T12:09:15.045Z,100768.94
2022-08-09T12:12:03.445Z,100760.50
2022-08-09T12:14:40.651Z,100758.44
2022-08-09T12:17:33.876Z,100751.81
2022-08-09T12:20:16.482Z,100749.50
2022-08-09T12:22:55.737Z,100767.53
2022-08-09T12:25:36.540Z,100759.25
2022-08-09T12:29:14.548Z,100779.97
2022-08-09T12:30:59.870Z,100756.28
2022-08-09T12:33:51.114Z,100754.03
2022-08-09T12:36:27.328Z,100755.81
2022-08-09T12:38:58.701Z,100774.84
2022-08-09T12:41:36.314Z,100775.09
2022-08-09T12:44:12.692Z,100782.19
2022-08-09T12:46:49.067Z,100780.63
2022-08-09T12:49:17.530Z,100755.94
2022-08-09T12:52:01.942Z,100772.28
2022-08-09T12:56:10.631Z,100778.06
2022-08-09T12:57:38.683Z,100771.12
2022-08-09T13:00:19.109Z,100778.53
2022-08-09T13:02:58.583Z,100773.00
2022-08-09T13:05:35.574Z,100766.81
2022-08-09T13:08:21.100Z,100758.31
2022-08-09T13:11:13.381Z,100766.22
2022-08-09T13:14:41.192Z,100755.37
2022-08-09T13:16:48.295Z,100756.97
2022-08-09T13:20:09.336Z,100751.41
2022-08-09T13:22:35.478Z,100751.06
2022-08-09T13:25:13.903Z,100758.00
2022-08-09T13:27:48.167Z,100767.50
2022-08-09T13:30:50.543Z,100756.63
2022-08-09T13:33:11.932Z,100759.44
2022-08-09T13:36:41.768Z,100773.81
2022-08-09T13:38:54.937Z,100766.19
2022-08-09T13:41:58.322Z,100752.37
2022-08-09T13:44:09.209Z,100761.25
2022-08-09T13:47:13.058Z,100760.41
2022-08-09T13:49:33.987Z,100757.72
2022-08-09T13:52:09.270Z,100756.97
2022-08-09T13:54:42.838Z,100758.22
2022-08-09T13:57:36.482Z,100753.09
2022-08-09T14:00:05.699Z,100752.44
2022-08-09T14:02:33.036Z,100744.47
2022-08-09T14:05:03.507Z,100737.97
2022-08-09T14:07:41.133Z,100742.16
2022-08-09T14:10:17.605Z,100746.16
2022-08-09T14:12:58.675Z,100751.94
2022-08-09T14:16:07.287Z,100747.88
2022-08-09T14:18:27.482Z,100744.25
2022-08-09T14:20:57.184Z,100741.66
2022-08-09T14:23:40.132Z,100758.53
2022-08-09T14:26:11.273Z,100750.41
2022-08-09T14:28:38.583Z,100762.37
2022-08-09T14:31:07.394Z,100753.88
2022-08-09T14:33:38.133Z,100751.56
2022-08-09T14:36:20.766Z,100759.63
2022-08-09T14:38:52.823Z,100757.69
2022-08-09T14:41:34.797Z,100758.34
2022-08-09T14:44:07.166Z,100742.78
2022-08-09T14:46:58.131Z,100742.19
2022-08-09T14:49:25.530Z,100748.16
2022-08-09T14:51:58.197Z,100748.56
2022-08-09T14:54:28.117Z,100746.25
2022-08-09T14:56:58.666Z,100745.16
2022-08-09T14:59:28.645Z,100745.19
2022-08-09T15:01:56.070Z,100746.66
2022-08-09T15:04:23.481Z,100753.00
2022-08-09T15:06:51.677Z,100739.63
2022-08-09T15:10:03.626Z,100737.31
2022-08-09T15:12:09.809Z,100750.66
2022-08-09T15:14:39.101Z,100757.66
2022-08-09T15:17:09.873Z,100751.91
2022-08-09T15:19:54.450Z,100752.13
2022-08-09T15:22:26.874Z,100739.00
2022-08-09T15:24:54.455Z,100744.31
2022-08-09T15:27:21.931Z,100737.53
2022-08-09T15:30:57.173Z,100734.12
2022-08-09T15:32:37.568Z,100736.25
2022-08-09T15:35:17.829Z,100731.59
2022-08-09T15:37:57.062Z,100742.97
2022-08-09T15:40:38.361Z,100714.06
2022-08-09T15:43:13.486Z,100737.81
2022-08-09T15:46:07.287Z,100734.47
2022-08-09T15:48:31.759Z,100749.53
2022-08-09T15:51:11.423Z,100745.66
2022-08-09T15:54:03.885Z,100742.94
2022-08-09T15:56:37.100Z,100748.03
2022-08-09T15:59:04.363Z,100748.25
2022-08-09T16:01:35.371Z,100745.50
2022-08-09T16:04:03.046Z,100739.97
2022-08-09T16:06:35.559Z,100748.63
2022-08-09T16:09:05.667Z,100742.63
2022-08-09T16:11:33.046Z,100738.22
2022-08-09T16:14:06.901Z,100732.91
2022-08-09T16:16:39.041Z,100743.75
2022-08-09T16:19:10.151Z,100741.63
2022-08-09T16:21:42.262Z,100733.38
2022-08-09T16:24:33.864Z,100741.25
2022-08-09T16:27:01.997Z,100745.69
2022-08-09T16:29:37.101Z,100736.97
2022-08-09T16:32:33.245Z,100739.09
2022-08-09T16:35:02.341Z,100746.75
2022-08-09T16:37:55.257Z,100745.06
2022-08-09T16:40:20.362Z,100736.31
2022-08-09T16:42:48.319Z,100752.81
2022-08-09T16:45:21.354Z,100755.16
2022-08-09T16:48:42.404Z,100757.09
2022-08-09T16:50:38.659Z,100765.31
2022-08-09T16:53:11.891Z,100757.66
2022-08-09T16:55:57.807Z,100763.75
2022-08-09T16:58:26.026Z,100767.94
2022-08-09T17:00:53.575Z,100767.06
2022-08-09T17:03:22.965Z,100769.97
2022-08-09T17:06:06.771Z,100772.50
2022-08-09T17:09:02.722Z,100762.69
2022-08-09T17:11:33.084Z,100766.66
2022-08-09T17:14:07.548Z,100758.56
2022-08-09T17:16:38.346Z,100776.16
2022-08-09T17:19:05.541Z,100769.34
2022-08-09T17:21:32.421Z,100778.59
2022-08-09T17:24:27.136Z,100789.84
2022-08-09T17:26:47.810Z,100788.34
2022-08-09T17:29:21.131Z,100800.72
2022-08-09T17:31:49.153Z,100801.47
2022-08-09T17:35:02.025Z,100799.31
2022-08-09T17:37:03.878Z,100810.72
2022-08-09T17:39:48.263Z,100810.28
2022-08-09T17:42:42.174Z,100815.47
2022-08-09T17:45:06.570Z,100829.84
2022-08-09T17:47:49.796Z,100835.47
2022-08-09T17:50:24.876Z,100841.31
2022-08-09T17:53:04.761Z,100863.59
2022-08-09T17:55:49.379Z,100884.72
2022-08-09T17:58:19.168Z,100885.25
2022-08-09T18:00:48.008Z,100881.94
2022-08-09T18:03:15.383Z,100888.47
2022-08-09T18:05:45.137Z,100856.75
2022-08-09T18:08:22.019Z,100869.06
2022-08-09T18:11:01.013Z,100859.56
2022-08-09T18:13:42.962Z,100849.97
2022-08-09T18:16:17.503Z,100860.13
2022-08-09T18:18:57.322Z,100859.75
2022-08-09T18:21:26.337Z,100860.72
2022-08-09T18:24:10.773Z,100857.66
2022-08-09T18:26:46.481Z,100879.75
2022-08-09T18:30:39.958Z,100866.69
2022-08-09T18:32:02.899Z,100886.19
2022-08-09T18:34:31.748Z,100887.81
2022-08-09T18:37:00.704Z,100887.87
2022-08-09T18:39:32.650Z,100889.97
2022-08-09T18:42:08.891Z,100898.78
2022-08-09T18:44:36.056Z,100919.25
2022-08-09T18:47:08.329Z,100920.47
2022-08-09T18:49:46.705Z,100947.25
2022-08-09T18:52:16.098Z,100949.53
2022-08-09T18:54:52.635Z,100963.63
2022-08-09T18:57:22.445Z,100975.31
2022-08-09T18:59:56.339Z,100985.25
2022-08-09T19:02:32.314Z,101000.06
2022-08-09T19:05:15.201Z,101002.81
2022-08-09T19:08:04.613Z,100999.63
2022-08-09T19:10:37.741Z,100991.81
2022-08-09T19:13:19.290Z,100998.91
2022-08-09T19:15:49.969Z,100993.94
2022-08-09T19:18:33.003Z,100994.50
2022-08-09T19:21:01.428Z,100996.72
2022-08-09T19:24:39.489Z,100997.28
2022-08-09T19:26:17.136Z,101015.78
2022-08-09T19:28:48.784Z,101005.53
2022-08-09T19:31:16.832Z,101016.00
2022-08-09T19:33:43.797Z,101029.94
2022-08-09T19:36:11.796Z,101070.38
2022-08-09T19:38:40.550Z,101077.47
2022-08-09T19:41:10.269Z,101086.69
2022-08-09T19:44:00.384Z,101082.88
2022-08-09T19:46:34.237Z,101086.41
2022-08-09T19:50:09.151Z,101096.50
2022-08-09T19:51:55.515Z,101100.56
2022-08-09T19:54:26.950Z,101093.38
2022-08-09T19:56:58.684Z,101093.75
2022-08-09T19:59:39.737Z,101105.06
2022-08-09T20:04:07.480Z,101106.94
2022-08-09T20:05:10.364Z,101086.56
2022-08-09T20:07:59.001Z,101094.81
2022-08-09T20:10:34.561Z,101100.81
2022-08-09T20:13:05.135Z,101086.94
2022-08-09T20:16:34.642Z,101097.06
2022-08-09T20:18:21.326Z,101101.37
2022-08-09T20:20:51.061Z,101114.97
2022-08-09T20:23:21.154Z,101121.19
2022-08-09T20:25:52.144Z,101117.91
2022-08-09T20:28:27.788Z,101119.28
2022-08-09T20:31:04.682Z,101117.34
2022-08-09T20:33:41.059Z,101119.41
2022-08-09T20:36:11.218Z,101128.28
2022-08-09T20:39:06.683Z,101126.38
2022-08-09T20:41:34.868Z,101128.28
2022-08-09T20:44:09.786Z,101124.22
2022-08-09T20:46:43.226Z,101124.56
2022-08-09T20:49:13.062Z,101123.19
2022-08-09T20:51:42.108Z,101134.47
2022-08-09T20:54:17.168Z,101131.69
2022-08-09T20:56:49.907Z,101139.09
2022-08-09T20:59:25.034Z,101135.72
2022-08-09T21:02:10.582Z,101134.69
2022-08-09T21:05:57.786Z,101140.12
2022-08-09T21:07:30.316Z,101143.72
2022-08-09T21:10:08.343Z,101150.75
2022-08-09T21:12:37.175Z,101130.41
2022-08-09T21:15:04.782Z,101134.12
2022-08-09T21:18:21.641Z,101125.91
2022-08-09T21:20:26.393Z,101120.44
2022-08-09T21:22:54.463Z,101125.50
2022-08-09T21:25:44.452Z,101127.19
2022-08-09T21:28:34.187Z,101135.09
2022-08-09T21:31:17.580Z,101139.31
2022-08-09T21:33:52.356Z,101139.84
2022-08-09T21:36:23.055Z,101134.69
2022-08-09T21:38:51.038Z,101136.25
2022-08-09T21:42:04.117Z,101136.22
2022-08-09T21:44:33.217Z,101141.97
2022-08-09T21:47:05.811Z,101139.88
2022-08-09T21:49:40.329Z,101153.84
2022-08-09T21:52:16.278Z,101147.16
2022-08-09T21:54:57.217Z,101142.72
2022-08-09T21:57:39.586Z,101147.16
2022-08-09T22:00:34.494Z,101141.84
2022-08-09T22:03:05.673Z,101158.66
2022-08-09T22:05:37.637Z,101152.00
2022-08-09T22:08:13.487Z,101155.97
2022-08-09T22:11:00.876Z,101156.88
2022-08-09T22:13:34.882Z,101153.50
2022-08-09T22:16:07.458Z,101160.19
2022-08-09T22:18:35.277Z,101153.50
2022-08-09T22:21:10.052Z,101147.62
2022-08-09T22:23:59.415Z,101144.59
2022-08-09T22:26:35.341Z,101153.56
2022-08-09T22:29:09.398Z,101164.53
2022-08-09T22:31:37.987Z,101153.59
2022-08-09T22:34:17.595Z,101152.44
2022-08-09T22:36:47.674Z,101158.03
2022-08-09T22:39:46.608Z,101156.34
2022-08-09T22:42:03.945Z,101159.59
2022-08-09T22:44:33.284Z,101157.81
2022-08-09T22:48:11.987Z,101153.19
2022-08-09T22:49:51.954Z,101157.25
2022-08-09T22:52:19.845Z,101158.56
2022-08-09T22:54:47.549Z,101171.12
2022-08-09T22:57:15.162Z,101154.66
2022-08-09T22:59:58.442Z,101158.53
2022-08-09T23:02:27.318Z,101159.00
2022-08-09T23:04:55.424Z,101144.84
2022-08-09T23:08:22.730Z,101158.78
2022-08-09T23:10:31.832Z,101151.63
2022-08-09T23:12:59.444Z,101154.78
2022-08-09T23:15:27.345Z,101157.22
2022-08-09T23:17:54.275Z,101153.19
2022-08-09T23:20:21.761Z,101160.13
2022-08-09T23:22:48.728Z,101156.66
2022-08-09T23:25:15.556Z,101159.41
2022-08-09T23:28:13.947Z,101164.31
2022-08-09T23:30:30.091Z,101159.59
2022-08-09T23:32:56.894Z,101154.31
2022-08-09T23:35:24.122Z,101152.75
2022-08-09T23:37:50.979Z,101145.16
2022-08-09T23:40:18.156Z,101153.62
2022-08-09T23:42:45.092Z,101153.62
2022-08-09T23:45:37.139Z,101154.19
2022-08-09T23:47:59.025Z,101153.81
2022-08-09T23:50:26.271Z,101155.25
2022-08-09T23:52:53.214Z,101151.19
2022-08-09T23:55:20.165Z,101153.84
2022-08-09T23:58:07.866Z,101162.59
